Lake City, Iowa
Current Conditions -  °F | °C
As of 6:15 PM on Wednesday 22 Oct 2014 (Local Time) from KCIN Reporting Station
Clear Clear  
Wind Chill: 63°   Ceiling: Unl
Heat Index: 63°   Visibility: 10mi
Dew Point: 48°   Wind: 9mph
Humidity: 59%   Direction: 150°SSE
Pressure: 30.05"   Gusts: 18mph
Location:  42.27°N, 94.73°W
Report Text: KCIN 222315Z AUTO 15008G16KT 10SM CLR 17/09 A3005 RMK AO2
Loading
Personal Weather Stations






























Interactive Weather Map
Tropical Storm Tracking
New forecast layout! Learn more

10-Day Weather Forecast

Advertisements
Track Severe Weather on mobile